createdAt,value
2022-08-02T00:02:27.271Z,8.55
2022-08-02T00:07:30.013Z,6.38
2022-08-02T00:12:32.813Z,7.53
2022-08-02T00:17:35.743Z,6.10
2022-08-02T00:22:38.793Z,9.35
2022-08-02T00:27:41.595Z,8.07
2022-08-02T00:32:44.366Z,5.75
2022-08-02T00:37:47.148Z,6.25
2022-08-02T00:43:07.167Z,7.90
2022-08-02T00:48:11.139Z,6.32
2022-08-02T00:53:13.985Z,9.82
2022-08-02T00:58:17.000Z,9.00
2022-08-02T01:03:20.040Z,10.45
2022-08-02T01:08:22.776Z,14.68
2022-08-02T01:13:32.482Z,12.95
2022-08-02T01:18:43.752Z,14.48
2022-08-02T01:24:17.793Z,14.65
2022-08-02T01:29:29.856Z,10.18
2022-08-02T01:34:38.816Z,11.88
2022-08-02T01:39:43.957Z,11.20
2022-08-02T01:44:47.523Z,11.40
2022-08-02T01:49:53.751Z,10.05
2022-08-02T01:55:33.605Z,8.68
2022-08-02T02:00:58.464Z,11.32
2022-08-02T02:12:11.661Z,4.90
2022-08-02T02:16:28.752Z,7.10
2022-08-02T02:21:31.744Z,5.18
2022-08-02T02:26:35.491Z,15.63
2022-08-02T02:31:40.437Z,17.87
2022-08-02T02:36:51.982Z,10.40
2022-08-02T02:41:56.001Z,16.98
2022-08-02T02:46:59.289Z,16.65
2022-08-02T02:52:04.031Z,16.77
2022-08-02T02:57:07.177Z,14.63
2022-08-02T03:02:11.598Z,14.65
2022-08-02T03:07:14.435Z,11.57
2022-08-02T03:12:20.047Z,12.65
2022-08-02T03:17:23.025Z,12.95
2022-08-02T03:22:25.701Z,4.70
2022-08-02T03:27:31.565Z,4.32
2022-08-02T03:32:39.045Z,4.43
2022-08-02T03:37:42.577Z,8.32
2022-08-02T03:42:48.126Z,5.82
2022-08-02T03:47:51.192Z,5.53
2022-08-02T03:52:54.450Z,4.25
2022-08-02T03:57:57.368Z,5.22
2022-08-02T04:03:00.277Z,8.35
2022-08-02T04:08:33.447Z,3.55
2022-08-02T04:13:31.800Z,3.42
2022-08-02T04:18:47.161Z,5.05
2022-08-02T04:23:51.348Z,5.82
2022-08-02T04:28:55.090Z,5.07
2022-08-02T04:33:58.176Z,5.00
2022-08-02T04:39:01.975Z,5.82
2022-08-02T04:44:04.806Z,4.97
2022-08-02T04:49:08.205Z,8.27
2022-08-02T04:54:12.085Z,6.63
2022-08-02T04:59:14.772Z,5.05
2022-08-02T05:04:17.583Z,7.95
2022-08-02T05:09:20.336Z,10.73
2022-08-02T05:14:23.557Z,9.63
2022-08-02T05:19:26.445Z,8.15
2022-08-02T05:24:29.198Z,5.60
2022-08-02T05:29:32.012Z,5.85
2022-08-02T05:34:34.742Z,5.70
2022-08-02T05:39:37.477Z,5.15
2022-08-02T05:44:59.198Z,9.63
2022-08-02T05:50:02.443Z,10.30
2022-08-02T05:55:13.811Z,6.85
2022-08-02T06:00:18.090Z,5.70
2022-08-02T06:05:21.749Z,5.63
2022-08-02T06:10:25.597Z,8.02
2022-08-02T06:15:28.471Z,7.03
2022-08-02T06:20:38.243Z,6.20
2022-08-02T06:25:51.238Z,5.43
2022-08-02T06:30:55.232Z,4.55
2022-08-02T06:36:24.955Z,4.70
2022-08-02T06:41:31.855Z,3.50
2022-08-02T06:47:09.901Z,6.45
2022-08-02T06:51:58.066Z,4.63
2022-08-02T06:57:02.636Z,4.53
2022-08-02T07:02:05.474Z,4.90
2022-08-02T07:07:08.256Z,6.85
2022-08-02T07:12:11.253Z,4.88
2022-08-02T07:17:14.334Z,6.93
2022-08-02T07:22:19.103Z,8.02
2022-08-02T07:27:23.698Z,5.93
2022-08-02T07:32:28.880Z,5.13
2022-08-02T07:37:54.722Z,6.85
2022-08-02T07:43:03.308Z,4.15
2022-08-02T07:48:08.873Z,4.70
2022-08-02T07:53:14.044Z,3.95
2022-08-02T07:58:16.847Z,4.03
2022-08-02T08:03:19.956Z,4.63
2022-08-02T08:08:22.752Z,2.58
2022-08-02T08:13:25.466Z,4.32
2022-08-02T08:18:28.499Z,5.57
2022-08-02T08:23:31.297Z,4.32
2022-08-02T08:28:35.979Z,3.45
2022-08-02T08:33:38.704Z,4.63
2022-08-02T08:38:41.501Z,5.38
2022-08-02T08:43:45.979Z,4.63
2022-08-02T08:48:54.916Z,3.90
2022-08-02T08:54:00.411Z,3.13
2022-08-02T08:59:05.083Z,3.88
2022-08-02T09:04:07.869Z,3.17
2022-08-02T09:09:10.876Z,5.05
2022-08-02T09:14:26.819Z,4.18
2022-08-02T09:19:30.031Z,3.15
2022-08-02T09:24:45.800Z,2.42
2022-08-02T09:30:11.580Z,2.00
2022-08-02T09:35:15.662Z,2.70
2022-08-02T09:40:36.058Z,4.28
2022-08-02T09:45:39.226Z,3.95
2022-08-02T09:50:43.303Z,2.08
2022-08-02T09:55:56.951Z,6.75
2022-08-02T10:00:59.779Z,3.47
2022-08-02T10:06:03.505Z,3.25
2022-08-02T10:11:06.491Z,4.28
2022-08-02T10:16:09.315Z,4.25
2022-08-02T10:21:36.711Z,2.88
2022-08-02T10:26:43.545Z,3.70
2022-08-02T10:32:07.137Z,8.20
2022-08-02T10:37:15.035Z,7.55
2022-08-02T10:42:49.662Z,6.72
2022-08-02T10:48:03.326Z,7.10
2022-08-02T10:53:30.194Z,3.38
2022-08-02T10:58:34.177Z,3.33
2022-08-02T11:03:40.461Z,3.70
2022-08-02T11:08:43.606Z,3.42
2022-08-02T11:14:08.118Z,3.17
2022-08-02T11:19:12.361Z,2.88
2022-08-02T11:24:35.816Z,3.17
2022-08-02T11:29:44.172Z,5.72
2022-08-02T11:34:49.539Z,3.65
2022-08-02T11:39:53.012Z,2.78
2022-08-02T11:44:56.698Z,2.65
2022-08-02T11:50:11.216Z,3.10
2022-08-02T11:55:16.728Z,4.20
2022-08-02T12:05:51.195Z,3.78
2022-08-02T12:15:52.941Z,7.00
2022-08-02T12:20:55.913Z,5.22
2022-08-02T12:26:16.222Z,3.63
2022-08-02T12:31:19.252Z,4.97
2022-08-02T12:36:24.724Z,4.80
2022-08-02T12:41:30.415Z,8.88
2022-08-02T12:46:41.961Z,5.00
2022-08-02T12:51:51.227Z,7.40
2022-08-02T12:57:16.489Z,3.07
2022-08-02T13:02:20.381Z,5.90
2022-08-02T13:07:23.392Z,4.72
2022-08-02T13:12:26.063Z,7.68
2022-08-02T13:17:29.201Z,4.18
2022-08-02T13:22:35.308Z,3.45
2022-08-02T13:27:39.440Z,4.28
2022-08-02T13:32:42.251Z,3.13
2022-08-02T13:37:47.044Z,3.33
2022-08-02T13:42:53.011Z,5.97
2022-08-02T13:47:57.517Z,4.60
2022-08-02T13:53:07.960Z,3.22
2022-08-02T13:58:10.974Z,4.55
2022-08-02T14:03:14.338Z,3.50
2022-08-02T14:08:21.146Z,4.88
2022-08-02T14:13:24.063Z,6.13
2022-08-02T14:18:26.964Z,3.65
2022-08-02T14:23:50.280Z,4.38
2022-08-02T14:28:57.782Z,4.68
2022-08-02T14:34:00.551Z,4.95
2022-08-02T14:39:03.450Z,7.05
2022-08-02T14:44:06.524Z,4.75
2022-08-02T14:49:10.794Z,4.50
2022-08-02T14:54:16.864Z,8.98
2022-08-02T14:59:21.227Z,5.15
2022-08-02T15:04:24.637Z,3.75
2022-08-02T15:09:27.909Z,6.43
2022-08-02T15:14:30.814Z,5.10
2022-08-02T15:19:58.999Z,6.60
2022-08-02T15:24:57.337Z,8.35
2022-08-02T15:30:03.057Z,10.02
2022-08-02T15:35:11.616Z,10.73
2022-08-02T15:40:20.022Z,8.32
2022-08-02T15:45:22.935Z,30.88
2022-08-02T15:50:25.768Z,12.35
2022-08-02T15:55:28.609Z,8.40
2022-08-02T16:00:43.021Z,10.80
2022-08-02T16:05:46.097Z,5.78
2022-08-02T16:10:48.803Z,7.32
2022-08-02T16:15:51.592Z,8.90
2022-08-02T16:20:54.691Z,8.93
2022-08-02T16:25:58.261Z,10.73
2022-08-02T16:31:10.880Z,14.02
2022-08-02T16:36:15.872Z,15.55
2022-08-02T16:41:23.021Z,15.13
2022-08-02T16:46:25.698Z,11.73
2022-08-02T16:51:28.509Z,11.88
2022-08-02T16:56:33.888Z,15.88
2022-08-02T17:02:02.720Z,14.73
2022-08-02T17:06:59.596Z,16.73
2022-08-02T17:12:02.348Z,15.13
2022-08-02T17:17:05.222Z,16.33
2022-08-02T17:22:17.823Z,13.82
2022-08-02T17:27:20.671Z,19.17
2022-08-02T17:32:23.640Z,19.10
2022-08-02T17:37:32.765Z,17.65
2022-08-02T17:42:37.821Z,16.25
2022-08-02T17:47:42.011Z,18.02
2022-08-02T17:52:50.181Z,18.83
2022-08-02T17:57:58.646Z,13.07
2022-08-02T18:03:05.703Z,11.90
2022-08-02T18:08:09.347Z,10.00
2022-08-02T18:13:12.168Z,11.10
2022-08-02T18:18:19.205Z,17.25
2022-08-02T18:23:32.319Z,18.00
2022-08-02T18:28:40.700Z,18.60
2022-08-02T18:33:57.022Z,15.32
2022-08-02T18:39:08.021Z,11.07
2022-08-02T18:44:15.783Z,11.30
2022-08-02T18:49:19.459Z,11.20
2022-08-02T18:54:26.454Z,16.55
2022-08-02T18:59:36.839Z,13.32
2022-08-02T19:04:46.902Z,9.10
2022-08-02T19:09:50.109Z,8.50
2022-08-02T19:14:52.908Z,11.48
2022-08-02T19:19:56.100Z,18.65
2022-08-02T19:25:01.069Z,20.88
2022-08-02T19:30:07.427Z,14.25
2022-08-02T19:35:15.228Z,14.23
2022-08-02T19:40:32.164Z,14.60
2022-08-02T19:45:49.065Z,10.82
2022-08-02T19:50:56.309Z,17.67
2022-08-02T19:56:02.928Z,10.50
2022-08-02T20:01:07.720Z,10.82
2022-08-02T20:06:17.817Z,8.50
2022-08-02T20:11:23.371Z,10.65
2022-08-02T20:16:33.107Z,7.05
2022-08-02T20:21:37.861Z,11.07
2022-08-02T20:26:47.043Z,9.63
2022-08-02T20:31:50.916Z,6.55
2022-08-02T20:36:54.157Z,5.93
2022-08-02T20:41:59.021Z,4.68
2022-08-02T20:47:03.220Z,3.40
2022-08-02T20:57:36.179Z,3.15
2022-08-02T21:02:52.032Z,4.25
2022-08-02T21:07:56.507Z,4.88
2022-08-02T21:13:18.859Z,3.00
2022-08-02T21:18:40.125Z,3.40
2022-08-02T21:23:54.452Z,3.38
2022-08-02T21:28:57.945Z,4.43
2022-08-02T21:34:01.139Z,4.45
2022-08-02T21:39:09.163Z,4.72
2022-08-02T21:44:12.353Z,5.30
2022-08-02T21:49:16.348Z,6.13
2022-08-02T21:54:21.286Z,7.68
2022-08-02T21:59:25.782Z,3.28
2022-08-02T22:04:29.694Z,5.27
2022-08-02T22:09:42.839Z,3.22
2022-08-02T22:14:53.917Z,4.57
2022-08-02T22:19:58.282Z,5.03
2022-08-02T22:25:01.035Z,4.28
2022-08-02T22:30:07.498Z,4.10
2022-08-02T22:35:12.696Z,3.53
2022-08-02T22:40:15.621Z,3.17
2022-08-02T22:45:20.496Z,4.10
2022-08-02T22:50:23.298Z,6.65
2022-08-02T22:55:32.110Z,5.97
2022-08-02T22:59:08.420Z,8.38
2022-08-02T23:00:35.356Z,5.43
2022-08-02T23:05:39.412Z,5.65
2022-08-02T23:10:42.619Z,7.43
2022-08-02T23:16:03.815Z,5.05
2022-08-02T23:21:06.970Z,5.57
2022-08-02T23:26:10.217Z,3.78
2022-08-02T23:31:37.499Z,3.33
2022-08-02T23:36:59.952Z,3.47
2022-08-02T23:42:03.260Z,6.57
2022-08-02T23:47:06.431Z,8.57
2022-08-02T23:52:09.504Z,6.00
2022-08-02T23:57:19.646Z,4.72
